sensor_id;sensor_type;location;lat;lon;timestamp;temperature;humidity
10051;DHT22;5065;46.942;7.432;2023-06-24T00:00:35;21.10;95.70
10051;DHT22;5065;46.942;7.432;2023-06-24T00:03:03;21.10;95.80
10051;DHT22;5065;46.942;7.432;2023-06-24T00:05:33;21.10;95.70
10051;DHT22;5065;46.942;7.432;2023-06-24T00:08:01;21.00;95.60
10051;DHT22;5065;46.942;7.432;2023-06-24T00:10:29;21.00;95.90
10051;DHT22;5065;46.942;7.432;2023-06-24T00:12:56;20.90;96.10
10051;DHT22;5065;46.942;7.432;2023-06-24T00:15:27;20.90;96.50
10051;DHT22;5065;46.942;7.432;2023-06-24T00:17:54;20.90;97.00
10051;DHT22;5065;46.942;7.432;2023-06-24T00:20:31;20.80;97.10
10051;DHT22;5065;46.942;7.432;2023-06-24T00:23:00;20.80;97.10
10051;DHT22;5065;46.942;7.432;2023-06-24T00:25:28;20.70;97.10
10051;DHT22;5065;46.942;7.432;2023-06-24T00:27:56;20.60;97.00
10051;DHT22;5065;46.942;7.432;2023-06-24T00:30:23;20.60;97.30
10051;DHT22;5065;46.942;7.432;2023-06-24T00:32:50;20.60;97.40
10051;DHT22;5065;46.942;7.432;2023-06-24T00:35:18;20.50;97.40
10051;DHT22;5065;46.942;7.432;2023-06-24T00:37:45;20.50;97.90
10051;DHT22;5065;46.942;7.432;2023-06-24T00:40:14;20.50;97.90
10051;DHT22;5065;46.942;7.432;2023-06-24T00:42:43;20.50;98.10
10051;DHT22;5065;46.942;7.432;2023-06-24T00:45:11;20.60;98.40
10051;DHT22;5065;46.942;7.432;2023-06-24T00:47:39;20.50;98.30
10051;DHT22;5065;46.942;7.432;2023-06-24T00:50:07;20.50;98.30
10051;DHT22;5065;46.942;7.432;2023-06-24T00:52:35;20.60;98.40
10051;DHT22;5065;46.942;7.432;2023-06-24T00:55:08;20.60;98.40
10051;DHT22;5065;46.942;7.432;2023-06-24T00:57:42;20.60;98.30
10051;DHT22;5065;46.942;7.432;2023-06-24T01:00:10;20.70;98.40
10051;DHT22;5065;46.942;7.432;2023-06-24T01:02:40;20.70;98.40
10051;DHT22;5065;46.942;7.432;2023-06-24T01:05:08;20.70;98.40
10051;DHT22;5065;46.942;7.432;2023-06-24T01:07:37;20.70;98.40
10051;DHT22;5065;46.942;7.432;2023-06-24T01:10:06;20.70;98.40
10051;DHT22;5065;46.942;7.432;2023-06-24T01:12:34;20.70;98.40
10051;DHT22;5065;46.942;7.432;2023-06-24T01:15:04;20.70;98.40
10051;DHT22;5065;46.942;7.432;2023-06-24T01:17:36;20.60;98.30
10051;DHT22;5065;46.942;7.432;2023-06-24T01:20:09;20.50;98.30
10051;DHT22;5065;46.942;7.432;2023-06-24T01:22:59;20.60;98.30
10051;DHT22;5065;46.942;7.432;2023-06-24T01:25:57;20.60;98.30
10051;DHT22;5065;46.942;7.432;2023-06-24T01:28:40;20.60;98.70
10051;DHT22;5065;46.942;7.432;2023-06-24T01:31:38;20.50;98.30
10051;DHT22;5065;46.942;7.432;2023-06-24T01:34:12;20.50;98.50
10051;DHT22;5065;46.942;7.432;2023-06-24T01:36:45;20.40;98.70
10051;DHT22;5065;46.942;7.432;2023-06-24T01:39:16;20.40;98.90
10051;DHT22;5065;46.942;7.432;2023-06-24T01:41:54;20.40;99.10
10051;DHT22;5065;46.942;7.432;2023-06-24T01:44:22;20.40;99.50
10051;DHT22;5065;46.942;7.432;2023-06-24T01:46:54;20.40;99.70
10051;DHT22;5065;46.942;7.432;2023-06-24T01:49:23;20.40;99.90
10051;DHT22;5065;46.942;7.432;2023-06-24T01:51:51;20.30;99.90
10051;DHT22;5065;46.942;7.432;2023-06-24T01:54:19;20.30;99.90
10051;DHT22;5065;46.942;7.432;2023-06-24T01:56:49;20.20;99.90
10051;DHT22;5065;46.942;7.432;2023-06-24T01:59:19;20.20;99.90
10051;DHT22;5065;46.942;7.432;2023-06-24T02:01:47;20.20;99.90
10051;DHT22;5065;46.942;7.432;2023-06-24T02:04:18;20.10;99.90
10051;DHT22;5065;46.942;7.432;2023-06-24T02:06:46;20.00;99.90
10051;DHT22;5065;46.942;7.432;2023-06-24T02:09:16;20.00;99.90
10051;DHT22;5065;46.942;7.432;2023-06-24T02:11:45;19.90;99.90
10051;DHT22;5065;46.942;7.432;2023-06-24T02:14:14;19.80;99.90
10051;DHT22;5065;46.942;7.432;2023-06-24T02:16:43;19.80;99.90
10051;DHT22;5065;46.942;7.432;2023-06-24T02:19:11;19.70;99.90
10051;DHT22;5065;46.942;7.432;2023-06-24T02:21:41;19.60;99.90
10051;DHT22;5065;46.942;7.432;2023-06-24T02:24:09;19.50;99.90
10051;DHT22;5065;46.942;7.432;2023-06-24T02:26:37;19.50;99.90
10051;DHT22;5065;46.942;7.432;2023-06-24T02:29:08;19.40;99.90
10051;DHT22;5065;46.942;7.432;2023-06-24T02:31:36;19.30;99.90
10051;DHT22;5065;46.942;7.432;2023-06-24T02:34:03;19.30;99.90
10051;DHT22;5065;46.942;7.432;2023-06-24T02:36:30;19.30;99.90
10051;DHT22;5065;46.942;7.432;2023-06-24T02:38:59;19.10;99.90
10051;DHT22;5065;46.942;7.432;2023-06-24T02:41:26;19.10;99.90
10051;DHT22;5065;46.942;7.432;2023-06-24T02:43:54;19.20;99.90
10051;DHT22;5065;46.942;7.432;2023-06-24T02:46:22;19.20;99.90
10051;DHT22;5065;46.942;7.432;2023-06-24T02:48:49;19.20;99.90
10051;DHT22;5065;46.942;7.432;2023-06-24T02:51:17;19.20;99.90
10051;DHT22;5065;46.942;7.432;2023-06-24T02:53:45;19.30;99.90
10051;DHT22;5065;46.942;7.432;2023-06-24T02:56:15;19.30;99.90
10051;DHT22;5065;46.942;7.432;2023-06-24T02:58:46;19.30;99.90
10051;DHT22;5065;46.942;7.432;2023-06-24T03:01:14;19.20;99.90
10051;DHT22;5065;46.942;7.432;2023-06-24T03:03:42;19.20;99.90
10051;DHT22;5065;46.942;7.432;2023-06-24T03:06:14;19.10;99.90
10051;DHT22;5065;46.942;7.432;2023-06-24T03:08:43;19.20;99.90
10051;DHT22;5065;46.942;7.432;2023-06-24T03:11:14;19.10;99.90
10051;DHT22;5065;46.942;7.432;2023-06-24T03:13:41;19.00;99.90
10051;DHT22;5065;46.942;7.432;2023-06-24T03:16:09;18.90;99.90
10051;DHT22;5065;46.942;7.432;2023-06-24T03:18:40;18.90;99.90
10051;DHT22;5065;46.942;7.432;2023-06-24T03:21:07;18.80;99.90
10051;DHT22;5065;46.942;7.432;2023-06-24T03:23:34;18.80;99.90
10051;DHT22;5065;46.942;7.432;2023-06-24T03:26:02;18.80;99.90
10051;DHT22;5065;46.942;7.432;2023-06-24T03:28:31;18.70;99.90
10051;DHT22;5065;46.942;7.432;2023-06-24T03:30:58;18.60;99.90
10051;DHT22;5065;46.942;7.432;2023-06-24T03:33:25;18.50;99.90
10051;DHT22;5065;46.942;7.432;2023-06-24T03:35:53;18.30;99.90
10051;DHT22;5065;46.942;7.432;2023-06-24T03:38:23;18.40;99.90
10051;DHT22;5065;46.942;7.432;2023-06-24T03:40:50;18.40;99.90
10051;DHT22;5065;46.942;7.432;2023-06-24T03:43:17;18.30;99.90
10051;DHT22;5065;46.942;7.432;2023-06-24T03:45:46;18.30;99.90
10051;DHT22;5065;46.942;7.432;2023-06-24T03:48:13;18.30;99.90
10051;DHT22;5065;46.942;7.432;2023-06-24T03:50:40;18.30;99.90
10051;DHT22;5065;46.942;7.432;2023-06-24T03:53:08;18.20;99.90
10051;DHT22;5065;46.942;7.432;2023-06-24T03:55:35;18.30;99.90
10051;DHT22;5065;46.942;7.432;2023-06-24T03:58:02;18.20;99.90
10051;DHT22;5065;46.942;7.432;2023-06-24T04:00:29;18.20;99.90
10051;DHT22;5065;46.942;7.432;2023-06-24T04:02:57;18.10;99.90
10051;DHT22;5065;46.942;7.432;2023-06-24T04:05:27;18.00;99.90
10051;DHT22;5065;46.942;7.432;2023-06-24T04:07:54;18.10;99.90
10051;DHT22;5065;46.942;7.432;2023-06-24T04:10:22;18.10;99.90
10051;DHT22;5065;46.942;7.432;2023-06-24T04:12:50;18.10;99.90
10051;DHT22;5065;46.942;7.432;2023-06-24T04:15:17;18.10;99.90
10051;DHT22;5065;46.942;7.432;2023-06-24T04:17:44;18.20;99.90
10051;DHT22;5065;46.942;7.432;2023-06-24T04:20:13;18.10;99.90
10051;DHT22;5065;46.942;7.432;2023-06-24T04:22:41;18.20;99.90
10051;DHT22;5065;46.942;7.432;2023-06-24T04:25:08;18.10;99.90
10051;DHT22;5065;46.942;7.432;2023-06-24T04:27:36;18.20;99.90
10051;DHT22;5065;46.942;7.432;2023-06-24T04:30:04;18.20;99.90
10051;DHT22;5065;46.942;7.432;2023-06-24T04:32:31;18.30;99.90
10051;DHT22;5065;46.942;7.432;2023-06-24T04:34:58;18.30;99.90
10051;DHT22;5065;46.942;7.432;2023-06-24T04:37:27;18.30;99.90
10051;DHT22;5065;46.942;7.432;2023-06-24T04:39:55;18.30;99.90
10051;DHT22;5065;46.942;7.432;2023-06-24T04:42:22;18.20;99.90
10051;DHT22;5065;46.942;7.432;2023-06-24T04:44:49;18.20;99.90
10051;DHT22;5065;46.942;7.432;2023-06-24T04:47:17;18.20;99.90
10051;DHT22;5065;46.942;7.432;2023-06-24T04:49:44;18.20;99.90
10051;DHT22;5065;46.942;7.432;2023-06-24T04:52:12;18.20;99.90
10051;DHT22;5065;46.942;7.432;2023-06-24T04:54:40;18.30;99.90
10051;DHT22;5065;46.942;7.432;2023-06-24T04:57:09;18.30;99.90
10051;DHT22;5065;46.942;7.432;2023-06-24T04:59:49;18.40;99.90
10051;DHT22;5065;46.942;7.432;2023-06-24T05:02:16;18.50;99.90
10051;DHT22;5065;46.942;7.432;2023-06-24T05:04:46;18.50;99.90
10051;DHT22;5065;46.942;7.432;2023-06-24T05:07:13;18.60;99.90
10051;DHT22;5065;46.942;7.432;2023-06-24T05:09:42;18.70;99.90
10051;DHT22;5065;46.942;7.432;2023-06-24T05:12:09;18.80;99.90
10051;DHT22;5065;46.942;7.432;2023-06-24T05:14:37;19.00;99.90
10051;DHT22;5065;46.942;7.432;2023-06-24T05:17:04;19.00;99.90
10051;DHT22;5065;46.942;7.432;2023-06-24T05:19:32;19.00;99.90
10051;DHT22;5065;46.942;7.432;2023-06-24T05:21:59;19.00;99.90
10051;DHT22;5065;46.942;7.432;2023-06-24T05:24:26;19.10;99.90
10051;DHT22;5065;46.942;7.432;2023-06-24T05:26:55;19.20;99.90
10051;DHT22;5065;46.942;7.432;2023-06-24T05:29:22;19.30;99.90
10051;DHT22;5065;46.942;7.432;2023-06-24T05:31:49;19.40;99.90
10051;DHT22;5065;46.942;7.432;2023-06-24T05:34:16;19.50;99.90
10051;DHT22;5065;46.942;7.432;2023-06-24T05:36:43;19.70;99.90
10051;DHT22;5065;46.942;7.432;2023-06-24T05:39:10;19.90;99.90
10051;DHT22;5065;46.942;7.432;2023-06-24T05:41:38;20.00;99.90
10051;DHT22;5065;46.942;7.432;2023-06-24T05:44:08;20.20;99.90
10051;DHT22;5065;46.942;7.432;2023-06-24T05:46:36;20.40;99.90
10051;DHT22;5065;46.942;7.432;2023-06-24T05:49:04;20.50;99.90
10051;DHT22;5065;46.942;7.432;2023-06-24T05:51:31;20.70;99.90
10051;DHT22;5065;46.942;7.432;2023-06-24T05:53:58;21.00;99.90
10051;DHT22;5065;46.942;7.432;2023-06-24T05:56:26;21.20;99.90
10051;DHT22;5065;46.942;7.432;2023-06-24T05:58:53;21.30;99.90
10051;DHT22;5065;46.942;7.432;2023-06-24T06:01:21;21.50;99.90
10051;DHT22;5065;46.942;7.432;2023-06-24T06:03:48;21.80;99.90
10051;DHT22;5065;46.942;7.432;2023-06-24T06:06:18;22.00;99.90
10051;DHT22;5065;46.942;7.432;2023-06-24T06:08:45;22.00;99.90
10051;DHT22;5065;46.942;7.432;2023-06-24T06:11:18;21.90;99.90
10051;DHT22;5065;46.942;7.432;2023-06-24T06:13:46;22.00;99.90
10051;DHT22;5065;46.942;7.432;2023-06-24T06:16:15;22.00;99.90
10051;DHT22;5065;46.942;7.432;2023-06-24T06:18:44;22.10;99.90
10051;DHT22;5065;46.942;7.432;2023-06-24T06:21:11;22.20;99.90
10051;DHT22;5065;46.942;7.432;2023-06-24T06:23:38;22.40;99.90
10051;DHT22;5065;46.942;7.432;2023-06-24T06:26:05;22.60;99.90
10051;DHT22;5065;46.942;7.432;2023-06-24T06:28:32;22.80;99.90
10051;DHT22;5065;46.942;7.432;2023-06-24T06:30:59;23.00;99.90
10051;DHT22;5065;46.942;7.432;2023-06-24T06:33:26;23.10;99.90
10051;DHT22;5065;46.942;7.432;2023-06-24T06:35:55;23.30;99.90
10051;DHT22;5065;46.942;7.432;2023-06-24T06:38:25;23.50;99.90
10051;DHT22;5065;46.942;7.432;2023-06-24T06:41:00;23.60;99.90
10051;DHT22;5065;46.942;7.432;2023-06-24T06:43:28;23.70;99.90
10051;DHT22;5065;46.942;7.432;2023-06-24T06:45:55;23.80;99.90
10051;DHT22;5065;46.942;7.432;2023-06-24T06:48:22;23.80;99.90
10051;DHT22;5065;46.942;7.432;2023-06-24T06:50:50;23.70;99.90
10051;DHT22;5065;46.942;7.432;2023-06-24T06:53:19;23.70;99.90
10051;DHT22;5065;46.942;7.432;2023-06-24T06:55:50;23.70;99.90
10051;DHT22;5065;46.942;7.432;2023-06-24T06:58:27;23.60;99.90
10051;DHT22;5065;46.942;7.432;2023-06-24T07:00:57;23.50;99.90
10051;DHT22;5065;46.942;7.432;2023-06-24T07:03:27;23.50;99.90
10051;DHT22;5065;46.942;7.432;2023-06-24T07:05:54;23.60;99.90
10051;DHT22;5065;46.942;7.432;2023-06-24T07:08:23;23.50;99.90
10051;DHT22;5065;46.942;7.432;2023-06-24T07:10:50;23.60;99.90
10051;DHT22;5065;46.942;7.432;2023-06-24T07:13:17;23.60;99.90
10051;DHT22;5065;46.942;7.432;2023-06-24T07:15:45;23.60;99.90
10051;DHT22;5065;46.942;7.432;2023-06-24T07:18:13;23.60;99.90
10051;DHT22;5065;46.942;7.432;2023-06-24T07:20:41;23.70;99.90
10051;DHT22;5065;46.942;7.432;2023-06-24T07:23:08;23.80;99.90
10051;DHT22;5065;46.942;7.432;2023-06-24T07:25:38;23.80;99.90
10051;DHT22;5065;46.942;7.432;2023-06-24T07:28:05;23.80;99.90
10051;DHT22;5065;46.942;7.432;2023-06-24T07:30:32;23.90;99.90
10051;DHT22;5065;46.942;7.432;2023-06-24T07:33:06;23.90;99.90
10051;DHT22;5065;46.942;7.432;2023-06-24T07:35:42;24.00;99.90
10051;DHT22;5065;46.942;7.432;2023-06-24T07:38:09;24.00;99.90
10051;DHT22;5065;46.942;7.432;2023-06-24T07:40:39;24.00;99.90
10051;DHT22;5065;46.942;7.432;2023-06-24T07:43:07;24.10;99.90
10051;DHT22;5065;46.942;7.432;2023-06-24T07:45:34;24.20;99.90
10051;DHT22;5065;46.942;7.432;2023-06-24T07:48:01;24.20;99.90
10051;DHT22;5065;46.942;7.432;2023-06-24T07:50:28;24.30;99.90
10051;DHT22;5065;46.942;7.432;2023-06-24T07:52:56;24.30;99.90
10051;DHT22;5065;46.942;7.432;2023-06-24T07:55:23;24.30;99.90
10051;DHT22;5065;46.942;7.432;2023-06-24T07:57:52;24.40;99.90
10051;DHT22;5065;46.942;7.432;2023-06-24T08:00:19;24.50;99.90
10051;DHT22;5065;46.942;7.432;2023-06-24T08:02:48;24.50;99.90
10051;DHT22;5065;46.942;7.432;2023-06-24T08:05:15;24.60;99.20
10051;DHT22;5065;46.942;7.432;2023-06-24T08:07:44;24.50;98.80
10051;DHT22;5065;46.942;7.432;2023-06-24T08:10:11;24.50;98.60
10051;DHT22;5065;46.942;7.432;2023-06-24T08:12:38;24.50;98.50
10051;DHT22;5065;46.942;7.432;2023-06-24T08:15:11;24.50;97.10
10051;DHT22;5065;46.942;7.432;2023-06-24T08:17:39;24.50;97.20
10051;DHT22;5065;46.942;7.432;2023-06-24T08:20:06;24.50;97.70
10051;DHT22;5065;46.942;7.432;2023-06-24T08:22:34;24.60;97.70
10051;DHT22;5065;46.942;7.432;2023-06-24T08:25:01;24.60;97.40
10051;DHT22;5065;46.942;7.432;2023-06-24T08:27:28;24.70;97.40
10051;DHT22;5065;46.942;7.432;2023-06-24T08:29:55;24.70;95.70
10051;DHT22;5065;46.942;7.432;2023-06-24T08:32:24;24.70;97.50
10051;DHT22;5065;46.942;7.432;2023-06-24T08:34:51;24.70;95.10
10051;DHT22;5065;46.942;7.432;2023-06-24T08:37:19;24.70;95.90
10051;DHT22;5065;46.942;7.432;2023-06-24T08:39:46;24.60;95.80
10051;DHT22;5065;46.942;7.432;2023-06-24T08:42:13;24.70;96.60
10051;DHT22;5065;46.942;7.432;2023-06-24T08:44:40;24.80;96.30
10051;DHT22;5065;46.942;7.432;2023-06-24T08:47:08;24.80;95.70
10051;DHT22;5065;46.942;7.432;2023-06-24T08:49:42;24.80;96.00
10051;DHT22;5065;46.942;7.432;2023-06-24T08:52:11;24.90;96.40
10051;DHT22;5065;46.942;7.432;2023-06-24T08:54:40;24.90;96.80
10051;DHT22;5065;46.942;7.432;2023-06-24T08:57:07;25.00;96.90
10051;DHT22;5065;46.942;7.432;2023-06-24T08:59:40;25.00;96.30
10051;DHT22;5065;46.942;7.432;2023-06-24T09:02:08;25.10;96.40
10051;DHT22;5065;46.942;7.432;2023-06-24T09:04:37;25.10;96.70
10051;DHT22;5065;46.942;7.432;2023-06-24T09:07:05;25.20;95.90
10051;DHT22;5065;46.942;7.432;2023-06-24T09:09:32;25.30;96.40
10051;DHT22;5065;46.942;7.432;2023-06-24T09:11:59;25.30;96.50
10051;DHT22;5065;46.942;7.432;2023-06-24T09:14:26;25.40;95.30
10051;DHT22;5065;46.942;7.432;2023-06-24T09:16:54;25.40;94.20
10051;DHT22;5065;46.942;7.432;2023-06-24T09:19:22;25.50;95.40
10051;DHT22;5065;46.942;7.432;2023-06-24T09:21:50;25.50;96.10
10051;DHT22;5065;46.942;7.432;2023-06-24T09:24:18;25.60;95.90
10051;DHT22;5065;46.942;7.432;2023-06-24T09:26:45;25.70;95.30
10051;DHT22;5065;46.942;7.432;2023-06-24T09:29:12;25.80;95.30
10051;DHT22;5065;46.942;7.432;2023-06-24T09:31:47;25.90;93.30
10051;DHT22;5065;46.942;7.432;2023-06-24T09:34:14;26.00;93.70
10051;DHT22;5065;46.942;7.432;2023-06-24T09:36:43;25.90;92.50
10051;DHT22;5065;46.942;7.432;2023-06-24T09:39:12;26.00;92.70
10051;DHT22;5065;46.942;7.432;2023-06-24T09:41:42;26.00;93.00
10051;DHT22;5065;46.942;7.432;2023-06-24T09:44:10;26.00;92.90
10051;DHT22;5065;46.942;7.432;2023-06-24T09:46:37;26.10;93.50
10051;DHT22;5065;46.942;7.432;2023-06-24T09:49:04;26.10;92.30
10051;DHT22;5065;46.942;7.432;2023-06-24T09:51:32;26.20;91.50
10051;DHT22;5065;46.942;7.432;2023-06-24T09:54:01;26.30;90.40
10051;DHT22;5065;46.942;7.432;2023-06-24T09:56:30;26.20;91.10
10051;DHT22;5065;46.942;7.432;2023-06-24T09:58:57;26.30;91.40
10051;DHT22;5065;46.942;7.432;2023-06-24T10:01:24;26.40;90.70
10051;DHT22;5065;46.942;7.432;2023-06-24T10:03:51;26.40;91.20
10051;DHT22;5065;46.942;7.432;2023-06-24T10:06:18;26.50;90.70
10051;DHT22;5065;46.942;7.432;2023-06-24T10:08:45;26.60;89.90
10051;DHT22;5065;46.942;7.432;2023-06-24T10:11:12;26.50;90.40
10051;DHT22;5065;46.942;7.432;2023-06-24T10:13:41;26.60;90.00
10051;DHT22;5065;46.942;7.432;2023-06-24T10:16:07;26.70;90.40
10051;DHT22;5065;46.942;7.432;2023-06-24T10:18:35;26.70;92.40
10051;DHT22;5065;46.942;7.432;2023-06-24T10:21:02;26.80;90.10
10051;DHT22;5065;46.942;7.432;2023-06-24T10:23:30;26.90;90.10
10051;DHT22;5065;46.942;7.432;2023-06-24T10:25:57;27.00;89.20
10051;DHT22;5065;46.942;7.432;2023-06-24T10:28:24;27.00;90.70
10051;DHT22;5065;46.942;7.432;2023-06-24T10:30:55;27.10;89.40
10051;DHT22;5065;46.942;7.432;2023-06-24T10:33:24;27.20;87.20
10051;DHT22;5065;46.942;7.432;2023-06-24T10:35:51;27.30;86.70
10051;DHT22;5065;46.942;7.432;2023-06-24T10:38:25;27.30;88.30
10051;DHT22;5065;46.942;7.432;2023-06-24T10:40:52;27.30;88.30
10051;DHT22;5065;46.942;7.432;2023-06-24T10:43:26;27.30;84.10
10051;DHT22;5065;46.942;7.432;2023-06-24T10:45:56;27.10;83.30
10051;DHT22;5065;46.942;7.432;2023-06-24T10:48:23;27.00;88.00
10051;DHT22;5065;46.942;7.432;2023-06-24T10:50:50;27.00;84.00
10051;DHT22;5065;46.942;7.432;2023-06-24T10:53:17;26.90;89.20
10051;DHT22;5065;46.942;7.432;2023-06-24T10:55:45;27.00;88.40
10051;DHT22;5065;46.942;7.432;2023-06-24T10:58:12;27.00;84.50
10051;DHT22;5065;46.942;7.432;2023-06-24T11:00:40;27.00;83.90
10051;DHT22;5065;46.942;7.432;2023-06-24T11:03:10;26.90;82.40
10051;DHT22;5065;46.942;7.432;2023-06-24T11:05:41;26.80;83.40
10051;DHT22;5065;46.942;7.432;2023-06-24T11:08:08;26.80;85.20
10051;DHT22;5065;46.942;7.432;2023-06-24T11:10:41;26.70;88.40
10051;DHT22;5065;46.942;7.432;2023-06-24T11:13:08;26.70;86.80
10051;DHT22;5065;46.942;7.432;2023-06-24T11:15:35;26.70;89.90
10051;DHT22;5065;46.942;7.432;2023-06-24T11:18:02;26.70;90.20
10051;DHT22;5065;46.942;7.432;2023-06-24T11:20:31;26.80;87.40
10051;DHT22;5065;46.942;7.432;2023-06-24T11:22:58;26.70;89.10
10051;DHT22;5065;46.942;7.432;2023-06-24T11:25:25;26.70;88.60
10051;DHT22;5065;46.942;7.432;2023-06-24T11:27:52;26.70;87.60
10051;DHT22;5065;46.942;7.432;2023-06-24T11:30:20;26.70;88.30
10051;DHT22;5065;46.942;7.432;2023-06-24T11:32:46;26.70;89.60
10051;DHT22;5065;46.942;7.432;2023-06-24T11:35:15;26.70;89.80
10051;DHT22;5065;46.942;7.432;2023-06-24T11:37:44;26.70;88.50
10051;DHT22;5065;46.942;7.432;2023-06-24T11:40:12;26.70;89.60
10051;DHT22;5065;46.942;7.432;2023-06-24T11:42:42;26.70;85.90
10051;DHT22;5065;46.942;7.432;2023-06-24T11:45:10;26.70;86.20
10051;DHT22;5065;46.942;7.432;2023-06-24T11:47:38;26.70;88.40
10051;DHT22;5065;46.942;7.432;2023-06-24T11:50:06;26.70;90.30
10051;DHT22;5065;46.942;7.432;2023-06-24T11:52:39;26.70;90.40
10051;DHT22;5065;46.942;7.432;2023-06-24T11:55:15;26.70;88.10
10051;DHT22;5065;46.942;7.432;2023-06-24T11:57:52;26.70;88.10
10051;DHT22;5065;46.942;7.432;2023-06-24T12:00:20;26.70;86.50
10051;DHT22;5065;46.942;7.432;2023-06-24T12:02:49;26.70;90.30
10051;DHT22;5065;46.942;7.432;2023-06-24T12:05:19;26.70;91.10
10051;DHT22;5065;46.942;7.432;2023-06-24T12:07:51;26.70;89.80
10051;DHT22;5065;46.942;7.432;2023-06-24T12:10:20;26.70;89.00
10051;DHT22;5065;46.942;7.432;2023-06-24T12:12:46;26.80;85.40
10051;DHT22;5065;46.942;7.432;2023-06-24T12:15:13;26.70;89.70
10051;DHT22;5065;46.942;7.432;2023-06-24T12:17:40;26.70;90.10
10051;DHT22;5065;46.942;7.432;2023-06-24T12:20:08;26.70;86.70
10051;DHT22;5065;46.942;7.432;2023-06-24T12:22:35;26.70;89.40
10051;DHT22;5065;46.942;7.432;2023-06-24T12:25:03;26.70;90.40
10051;DHT22;5065;46.942;7.432;2023-06-24T12:27:31;26.80;86.20
10051;DHT22;5065;46.942;7.432;2023-06-24T12:29:59;26.80;90.10
10051;DHT22;5065;46.942;7.432;2023-06-24T12:32:26;26.70;86.10
10051;DHT22;5065;46.942;7.432;2023-06-24T12:34:53;26.70;86.70
10051;DHT22;5065;46.942;7.432;2023-06-24T12:37:20;26.70;90.40
10051;DHT22;5065;46.942;7.432;2023-06-24T12:39:47;26.70;90.80
10051;DHT22;5065;46.942;7.432;2023-06-24T12:42:16;26.70;88.20
10051;DHT22;5065;46.942;7.432;2023-06-24T12:44:45;26.80;88.60
10051;DHT22;5065;46.942;7.432;2023-06-24T12:47:12;26.90;87.40
10051;DHT22;5065;46.942;7.432;2023-06-24T12:49:39;27.00;86.40
10051;DHT22;5065;46.942;7.432;2023-06-24T12:52:06;27.20;83.80
10051;DHT22;5065;46.942;7.432;2023-06-24T12:54:33;27.30;85.30
10051;DHT22;5065;46.942;7.432;2023-06-24T12:57:00;27.30;84.90
10051;DHT22;5065;46.942;7.432;2023-06-24T12:59:27;27.20;85.80
10051;DHT22;5065;46.942;7.432;2023-06-24T13:01:55;27.10;86.30
10051;DHT22;5065;46.942;7.432;2023-06-24T13:04:22;27.00;89.60
10051;DHT22;5065;46.942;7.432;2023-06-24T13:06:50;27.00;86.60
10051;DHT22;5065;46.942;7.432;2023-06-24T13:09:17;27.00;86.00
10051;DHT22;5065;46.942;7.432;2023-06-24T13:11:44;26.90;88.60
10051;DHT22;5065;46.942;7.432;2023-06-24T13:14:11;26.90;88.30
10051;DHT22;5065;46.942;7.432;2023-06-24T13:16:38;26.90;88.80
10051;DHT22;5065;46.942;7.432;2023-06-24T13:19:06;26.90;85.20
10051;DHT22;5065;46.942;7.432;2023-06-24T13:21:35;26.90;87.70
10051;DHT22;5065;46.942;7.432;2023-06-24T13:24:02;27.10;86.30
10051;DHT22;5065;46.942;7.432;2023-06-24T13:26:29;27.20;85.10
10051;DHT22;5065;46.942;7.432;2023-06-24T13:28:56;27.20;84.20
10051;DHT22;5065;46.942;7.432;2023-06-24T13:31:23;27.30;85.20
10051;DHT22;5065;46.942;7.432;2023-06-24T13:33:51;27.20;85.10
10051;DHT22;5065;46.942;7.432;2023-06-24T13:36:29;27.10;86.80
10051;DHT22;5065;46.942;7.432;2023-06-24T13:38:56;27.10;86.60
10051;DHT22;5065;46.942;7.432;2023-06-24T13:41:23;27.00;88.30
10051;DHT22;5065;46.942;7.432;2023-06-24T13:43:51;26.90;88.70
10051;DHT22;5065;46.942;7.432;2023-06-24T13:46:19;26.90;86.10
10051;DHT22;5065;46.942;7.432;2023-06-24T13:48:45;26.90;88.40
10051;DHT22;5065;46.942;7.432;2023-06-24T13:51:12;26.80;87.30
10051;DHT22;5065;46.942;7.432;2023-06-24T13:53:41;26.80;88.80
10051;DHT22;5065;46.942;7.432;2023-06-24T13:56:08;26.80;87.90
10051;DHT22;5065;46.942;7.432;2023-06-24T13:58:35;26.80;87.50
10051;DHT22;5065;46.942;7.432;2023-06-24T14:01:05;26.80;88.10
10051;DHT22;5065;46.942;7.432;2023-06-24T14:03:32;26.80;88.30
10051;DHT22;5065;46.942;7.432;2023-06-24T14:05:59;26.80;88.80
10051;DHT22;5065;46.942;7.432;2023-06-24T14:08:26;26.80;89.60
10051;DHT22;5065;46.942;7.432;2023-06-24T14:10:55;26.70;87.90
10051;DHT22;5065;46.942;7.432;2023-06-24T14:13:22;26.70;85.10
10051;DHT22;5065;46.942;7.432;2023-06-24T14:15:49;26.80;83.50
10051;DHT22;5065;46.942;7.432;2023-06-24T14:18:16;26.90;84.20
10051;DHT22;5065;46.942;7.432;2023-06-24T14:20:43;27.00;84.70
10051;DHT22;5065;46.942;7.432;2023-06-24T14:23:10;27.10;81.80
10051;DHT22;5065;46.942;7.432;2023-06-24T14:25:37;27.20;82.80
10051;DHT22;5065;46.942;7.432;2023-06-24T14:28:05;27.10;83.60
10051;DHT22;5065;46.942;7.432;2023-06-24T14:30:33;27.10;83.90
10051;DHT22;5065;46.942;7.432;2023-06-24T14:33:00;27.00;82.90
10051;DHT22;5065;46.942;7.432;2023-06-24T14:35:26;26.90;84.30
10051;DHT22;5065;46.942;7.432;2023-06-24T14:37:53;26.90;86.00
10051;DHT22;5065;46.942;7.432;2023-06-24T14:40:20;26.80;84.80
10051;DHT22;5065;46.942;7.432;2023-06-24T14:42:47;26.80;84.50
10051;DHT22;5065;46.942;7.432;2023-06-24T14:45:16;26.80;85.10
10051;DHT22;5065;46.942;7.432;2023-06-24T14:47:43;26.70;84.40
10051;DHT22;5065;46.942;7.432;2023-06-24T14:50:09;26.70;85.00
10051;DHT22;5065;46.942;7.432;2023-06-24T14:52:37;26.70;85.70
10051;DHT22;5065;46.942;7.432;2023-06-24T14:55:04;26.70;84.00
10051;DHT22;5065;46.942;7.432;2023-06-24T14:57:31;26.70;85.70
10051;DHT22;5065;46.942;7.432;2023-06-24T14:59:58;26.70;86.70
10051;DHT22;5065;46.942;7.432;2023-06-24T15:02:26;26.70;84.00
10051;DHT22;5065;46.942;7.432;2023-06-24T15:04:53;26.70;83.60
10051;DHT22;5065;46.942;7.432;2023-06-24T15:07:20;26.70;83.40
10051;DHT22;5065;46.942;7.432;2023-06-24T15:09:46;26.70;86.20
10051;DHT22;5065;46.942;7.432;2023-06-24T15:12:13;26.70;84.90
10051;DHT22;5065;46.942;7.432;2023-06-24T15:14:40;26.70;82.60
10051;DHT22;5065;46.942;7.432;2023-06-24T15:17:08;26.70;83.40
10051;DHT22;5065;46.942;7.432;2023-06-24T15:19:37;26.80;82.80
10051;DHT22;5065;46.942;7.432;2023-06-24T15:22:03;27.00;79.70
10051;DHT22;5065;46.942;7.432;2023-06-24T15:24:30;27.00;79.50
10051;DHT22;5065;46.942;7.432;2023-06-24T15:26:58;27.10;79.80
10051;DHT22;5065;46.942;7.432;2023-06-24T15:29:25;27.00;80.70
10051;DHT22;5065;46.942;7.432;2023-06-24T15:31:52;26.90;81.30
10051;DHT22;5065;46.942;7.432;2023-06-24T15:34:18;26.90;82.90
10051;DHT22;5065;46.942;7.432;2023-06-24T15:36:47;26.80;81.60
10051;DHT22;5065;46.942;7.432;2023-06-24T15:39:14;26.80;81.70
10051;DHT22;5065;46.942;7.432;2023-06-24T15:41:41;26.70;84.10
10051;DHT22;5065;46.942;7.432;2023-06-24T15:44:12;26.70;82.70
10051;DHT22;5065;46.942;7.432;2023-06-24T15:46:39;26.70;83.50
10051;DHT22;5065;46.942;7.432;2023-06-24T15:49:07;26.70;86.10
10051;DHT22;5065;46.942;7.432;2023-06-24T15:51:34;26.60;85.30